createdAt,value
2022-10-16T00:01:11.975Z,5.30
2022-10-16T00:03:40.215Z,3.88
2022-10-16T00:06:08.561Z,4.20
2022-10-16T00:08:37.505Z,7.22
2022-10-16T00:11:08.611Z,4.25
2022-10-16T00:13:38.959Z,5.85
2022-10-16T00:16:07.665Z,6.82
2022-10-16T00:18:38.085Z,2.90
2022-10-16T00:21:08.002Z,4.80
2022-10-16T00:23:36.691Z,5.68
2022-10-16T00:26:08.293Z,5.50
2022-10-16T00:28:37.289Z,4.10
2022-10-16T00:31:06.688Z,3.33
2022-10-16T00:33:36.307Z,3.22
2022-10-16T00:36:06.343Z,3.65
2022-10-16T00:38:34.862Z,5.72
2022-10-16T00:41:03.197Z,5.63
2022-10-16T00:43:49.864Z,2.90
2022-10-16T00:46:21.369Z,3.60
2022-10-16T00:48:53.996Z,3.97
2022-10-16T00:51:27.611Z,3.38
2022-10-16T00:53:56.807Z,4.10
2022-10-16T00:56:24.930Z,6.00
2022-10-16T00:58:53.075Z,3.78
2022-10-16T01:01:21.199Z,4.97
2022-10-16T01:03:49.353Z,6.72
2022-10-16T01:06:40.314Z,4.15
2022-10-16T01:09:18.433Z,3.22
2022-10-16T01:11:56.840Z,3.20
2022-10-16T01:14:31.055Z,3.38
2022-10-16T01:17:05.910Z,4.15
2022-10-16T01:19:46.376Z,2.72
2022-10-16T01:22:16.578Z,6.45
2022-10-16T01:27:26.133Z,5.80
2022-10-16T01:29:58.282Z,5.00
2022-10-16T01:32:35.083Z,4.32
2022-10-16T01:35:09.557Z,4.03
2022-10-16T01:37:40.674Z,3.47
2022-10-16T01:40:12.337Z,4.65
2022-10-16T01:42:44.783Z,5.95
2022-10-16T01:45:19.017Z,4.22
2022-10-16T01:47:48.642Z,5.18
2022-10-16T01:50:20.122Z,2.67
2022-10-16T01:52:51.687Z,2.53
2022-10-16T01:55:26.377Z,6.95
2022-10-16T01:57:57.102Z,1.77
2022-10-16T02:00:26.084Z,3.80
2022-10-16T02:02:57.235Z,2.75
2022-10-16T02:05:29.169Z,3.50
2022-10-16T02:07:58.548Z,4.80
2022-10-16T02:10:32.328Z,2.47
2022-10-16T02:13:07.236Z,4.72
2022-10-16T02:15:35.319Z,4.20
2022-10-16T02:18:04.479Z,3.03
2022-10-16T02:20:38.946Z,4.10
2022-10-16T02:23:08.792Z,4.68
2022-10-16T02:25:42.480Z,2.50
2022-10-16T02:28:18.300Z,4.30
2022-10-16T02:30:51.000Z,4.00
2022-10-16T02:33:22.047Z,3.08
2022-10-16T02:35:51.802Z,3.20
2022-10-16T02:38:21.100Z,3.85
2022-10-16T02:40:49.253Z,5.03
2022-10-16T02:43:19.213Z,5.30
2022-10-16T02:45:47.349Z,3.22
2022-10-16T02:48:16.003Z,4.55
2022-10-16T02:50:44.043Z,5.25
2022-10-16T02:53:12.124Z,6.70
2022-10-16T02:55:40.175Z,5.60
2022-10-16T02:58:08.278Z,3.80
2022-10-16T03:00:37.694Z,3.40
2022-10-16T03:03:05.744Z,4.93
2022-10-16T03:05:33.804Z,4.97
2022-10-16T03:08:02.255Z,4.40
2022-10-16T03:10:30.294Z,5.13
2022-10-16T03:12:58.350Z,7.88
2022-10-16T03:15:26.954Z,5.57
2022-10-16T03:17:56.545Z,5.90
2022-10-16T03:20:24.623Z,4.82
2022-10-16T03:22:52.710Z,8.43
2022-10-16T03:25:20.936Z,7.22
2022-10-16T03:27:49.052Z,7.03
2022-10-16T03:30:17.566Z,8.35
2022-10-16T03:32:46.775Z,9.80
2022-10-16T03:35:16.451Z,7.45
2022-10-16T03:37:44.546Z,9.32
2022-10-16T03:40:12.959Z,6.05
2022-10-16T03:42:41.134Z,8.13
2022-10-16T03:45:09.835Z,9.10
2022-10-16T03:47:37.971Z,9.15
2022-10-16T03:50:07.098Z,6.97
2022-10-16T03:52:36.577Z,6.55
2022-10-16T03:55:04.760Z,8.50
2022-10-16T03:57:32.820Z,8.23
2022-10-16T04:00:01.018Z,8.93
2022-10-16T04:02:29.049Z,11.82
2022-10-16T04:04:57.108Z,8.15
2022-10-16T04:07:25.360Z,9.52
2022-10-16T04:09:55.050Z,6.40
2022-10-16T04:12:23.115Z,5.07
2022-10-16T04:14:51.215Z,7.80
2022-10-16T04:17:19.401Z,6.70
2022-10-16T04:19:47.477Z,8.77
2022-10-16T04:22:15.704Z,7.60
2022-10-16T04:24:43.809Z,5.32
2022-10-16T04:27:13.275Z,6.85
2022-10-16T04:29:41.331Z,6.28
2022-10-16T04:32:10.589Z,6.25
2022-10-16T04:34:39.149Z,6.88
2022-10-16T04:37:07.222Z,6.00
2022-10-16T04:39:35.279Z,4.70
2022-10-16T04:42:03.652Z,4.43
2022-10-16T04:44:33.115Z,4.30
2022-10-16T04:47:01.226Z,4.05
2022-10-16T04:49:29.314Z,3.72
2022-10-16T04:51:57.340Z,3.50
2022-10-16T04:54:25.436Z,6.57
2022-10-16T04:56:53.477Z,3.97
2022-10-16T04:59:22.249Z,2.70
2022-10-16T05:01:51.958Z,3.92
2022-10-16T05:04:20.015Z,3.03
2022-10-16T05:06:48.230Z,4.03
2022-10-16T05:09:16.596Z,4.38
2022-10-16T05:11:44.627Z,2.67
2022-10-16T05:14:12.756Z,3.85
2022-10-16T05:16:40.824Z,4.20
2022-10-16T05:21:58.397Z,3.55
2022-10-16T05:24:26.454Z,2.83
2022-10-16T05:26:54.603Z,2.65
2022-10-16T05:29:23.007Z,1.67
2022-10-16T05:31:52.945Z,3.38
2022-10-16T05:34:23.152Z,1.95
2022-10-16T05:36:51.307Z,3.60
2022-10-16T05:39:19.463Z,2.83
2022-10-16T05:41:48.429Z,1.48
2022-10-16T05:44:16.614Z,5.88
2022-10-16T05:46:44.647Z,2.90
2022-10-16T05:49:12.701Z,1.35
2022-10-16T05:51:42.259Z,3.97
2022-10-16T05:54:10.327Z,2.75
2022-10-16T05:56:38.402Z,2.35
2022-10-16T05:59:06.888Z,1.85
2022-10-16T06:01:36.211Z,4.65
2022-10-16T06:04:04.391Z,8.52
2022-10-16T06:06:32.797Z,1.75
2022-10-16T06:09:02.240Z,1.10
2022-10-16T06:11:33.005Z,3.60
2022-10-16T06:14:03.752Z,2.97
2022-10-16T06:16:31.831Z,3.45
2022-10-16T06:19:00.368Z,3.05
2022-10-16T06:21:29.978Z,4.32
2022-10-16T06:23:58.815Z,5.60
2022-10-16T06:26:30.062Z,9.55
2022-10-16T06:28:59.691Z,4.95
2022-10-16T06:31:30.154Z,4.93
2022-10-16T06:33:58.728Z,5.72
2022-10-16T06:36:27.753Z,4.70
2022-10-16T06:38:56.102Z,5.13
2022-10-16T06:41:25.132Z,5.80
2022-10-16T06:43:54.623Z,6.05
2022-10-16T06:46:25.164Z,5.90
2022-10-16T06:48:53.224Z,7.50
2022-10-16T06:51:23.086Z,4.82
2022-10-16T06:54:08.944Z,6.13
2022-10-16T06:56:37.615Z,6.32
2022-10-16T06:59:07.546Z,5.30
2022-10-16T07:01:35.625Z,5.25
2022-10-16T07:04:04.269Z,6.93
2022-10-16T07:06:35.405Z,5.32
2022-10-16T07:09:06.518Z,4.93
2022-10-16T07:11:35.476Z,4.78
2022-10-16T07:14:03.616Z,6.22
2022-10-16T07:16:34.826Z,5.22
2022-10-16T07:19:04.280Z,6.85
2022-10-16T07:21:37.029Z,5.45
2022-10-16T07:24:07.143Z,5.10
2022-10-16T07:26:37.483Z,4.03
2022-10-16T07:29:06.056Z,6.50
2022-10-16T07:31:35.528Z,5.97
2022-10-16T07:34:03.591Z,5.18
2022-10-16T07:36:31.705Z,4.13
2022-10-16T07:39:00.443Z,5.57
2022-10-16T07:41:29.274Z,4.15
2022-10-16T07:44:00.989Z,5.75
2022-10-16T07:48:58.576Z,4.63
2022-10-16T07:51:27.865Z,5.93
2022-10-16T07:53:56.076Z,3.80
2022-10-16T07:56:24.556Z,3.00
2022-10-16T07:58:53.606Z,7.38
2022-10-16T08:01:22.092Z,3.50
2022-10-16T08:03:52.100Z,3.15
2022-10-16T08:06:26.922Z,3.50
2022-10-16T08:08:56.705Z,2.90
2022-10-16T08:11:25.372Z,6.82
2022-10-16T08:13:53.485Z,2.78
2022-10-16T08:16:21.908Z,3.03
2022-10-16T08:18:52.189Z,3.00
2022-10-16T08:21:24.755Z,4.28
2022-10-16T08:23:58.079Z,4.95
2022-10-16T08:26:27.831Z,3.00
2022-10-16T08:28:56.729Z,3.67
2022-10-16T08:31:25.023Z,7.22
2022-10-16T08:33:53.668Z,3.55
2022-10-16T08:36:23.275Z,4.38
2022-10-16T08:38:54.494Z,2.85
2022-10-16T08:41:41.798Z,3.63
2022-10-16T08:44:29.651Z,3.60
2022-10-16T08:47:07.833Z,3.53
2022-10-16T08:49:36.211Z,3.30
2022-10-16T08:52:05.770Z,3.42
2022-10-16T08:54:41.524Z,6.85
2022-10-16T08:57:13.316Z,2.95
2022-10-16T09:02:27.521Z,3.85
2022-10-16T09:05:05.411Z,4.97
2022-10-16T09:07:41.292Z,2.63
2022-10-16T09:10:22.213Z,3.72
2022-10-16T09:12:57.930Z,2.05
2022-10-16T09:15:33.224Z,3.85
2022-10-16T09:18:07.410Z,3.05
2022-10-16T09:20:46.884Z,2.92
2022-10-16T09:23:20.243Z,3.28
2022-10-16T09:25:50.831Z,2.60
2022-10-16T09:28:20.151Z,3.83
2022-10-16T09:30:49.600Z,3.38
2022-10-16T09:33:19.537Z,2.60
2022-10-16T09:35:50.769Z,2.40
2022-10-16T09:38:29.179Z,5.00
2022-10-16T09:41:03.063Z,3.10
2022-10-16T09:43:36.791Z,2.08
2022-10-16T09:46:06.991Z,2.25
2022-10-16T09:48:39.336Z,0.98
2022-10-16T09:51:19.401Z,6.47
2022-10-16T09:53:49.386Z,1.52
2022-10-16T09:56:25.936Z,0.98
2022-10-16T09:58:54.725Z,2.22
2022-10-16T10:01:24.753Z,0.90
2022-10-16T10:03:54.253Z,1.27
2022-10-16T10:06:26.443Z,0.75
2022-10-16T10:09:06.446Z,1.80
2022-10-16T10:11:55.234Z,1.70
2022-10-16T10:14:26.517Z,1.58
2022-10-16T10:17:04.371Z,1.38
2022-10-16T10:19:39.171Z,2.75
2022-10-16T10:22:18.406Z,2.15
2022-10-16T10:24:57.698Z,1.35
2022-10-16T10:27:31.539Z,2.03
2022-10-16T10:30:09.257Z,1.98
2022-10-16T10:32:43.904Z,3.72
2022-10-16T10:35:20.958Z,2.58
2022-10-16T10:38:04.595Z,1.77
2022-10-16T10:40:42.627Z,2.60
2022-10-16T10:43:21.505Z,1.95
2022-10-16T10:45:52.640Z,1.00
2022-10-16T10:48:56.627Z,1.20
2022-10-16T10:51:32.116Z,1.98
2022-10-16T10:54:08.620Z,2.83
2022-10-16T10:56:54.313Z,2.85
2022-10-16T11:00:00.091Z,2.15
2022-10-16T11:02:35.492Z,2.42
2022-10-16T11:05:34.495Z,1.65
2022-10-16T11:08:08.731Z,2.42
2022-10-16T11:10:46.626Z,0.57
2022-10-16T11:13:25.724Z,1.75
2022-10-16T11:15:59.099Z,1.65
2022-10-16T11:18:33.015Z,1.38
2022-10-16T11:21:06.363Z,0.98
2022-10-16T11:23:41.039Z,0.90
2022-10-16T11:26:16.264Z,1.20
2022-10-16T11:28:50.548Z,1.23
2022-10-16T11:31:24.240Z,2.08
2022-10-16T11:36:40.402Z,0.52
2022-10-16T11:39:20.243Z,4.72
2022-10-16T11:41:51.297Z,1.77
2022-10-16T11:44:36.579Z,0.30
2022-10-16T11:50:06.823Z,0.40
2022-10-16T11:55:15.329Z,1.00
2022-10-16T11:57:49.488Z,2.88
2022-10-16T12:00:26.323Z,4.82
2022-10-16T12:03:06.609Z,0.70
2022-10-16T12:05:46.531Z,1.20
2022-10-16T12:08:16.744Z,1.70
2022-10-16T12:10:47.733Z,1.33
2022-10-16T12:13:40.606Z,0.55
2022-10-16T12:16:23.616Z,1.63
2022-10-16T12:18:52.583Z,0.50
2022-10-16T12:21:31.842Z,0.63
2022-10-16T12:24:05.560Z,3.83
2022-10-16T12:26:36.284Z,2.42
2022-10-16T12:29:25.586Z,1.40
2022-10-16T12:31:58.346Z,1.25
2022-10-16T12:34:30.963Z,0.82
2022-10-16T12:37:10.063Z,0.75
2022-10-16T12:39:39.077Z,0.93
2022-10-16T12:42:21.486Z,0.95
2022-10-16T12:44:49.576Z,1.05
2022-10-16T12:47:39.684Z,0.90
2022-10-16T12:50:26.854Z,1.60
2022-10-16T12:52:55.015Z,1.30
2022-10-16T12:55:25.422Z,1.17
2022-10-16T12:58:14.034Z,1.40
2022-10-16T13:00:47.324Z,1.15
2022-10-16T13:03:45.956Z,0.75
2022-10-16T13:06:24.755Z,2.55
2022-10-16T13:09:12.116Z,4.75
2022-10-16T13:11:58.241Z,9.70
2022-10-16T13:14:56.115Z,4.68
2022-10-16T13:17:30.381Z,4.00
2022-10-16T13:20:08.664Z,2.22
2022-10-16T13:22:46.424Z,2.92
2022-10-16T13:25:28.943Z,1.73
2022-10-16T13:27:59.149Z,2.60
2022-10-16T13:30:31.039Z,3.78
2022-10-16T13:33:03.055Z,1.73
2022-10-16T13:35:35.731Z,1.75
2022-10-16T13:38:22.700Z,1.92
2022-10-16T13:40:52.960Z,2.60
2022-10-16T13:43:23.057Z,2.08
2022-10-16T13:45:59.292Z,3.03
2022-10-16T13:48:27.393Z,3.60
2022-10-16T13:51:08.399Z,3.83
2022-10-16T13:53:37.727Z,6.60
2022-10-16T13:56:08.075Z,1.83
2022-10-16T13:58:36.148Z,2.67
2022-10-16T14:01:06.807Z,2.38
2022-10-16T14:03:37.243Z,5.93
2022-10-16T14:06:14.573Z,1.88
2022-10-16T14:08:45.356Z,2.40
2022-10-16T14:11:13.973Z,5.22
2022-10-16T14:13:45.993Z,1.75
2022-10-16T14:16:20.419Z,6.82
2022-10-16T14:21:28.164Z,2.28
2022-10-16T14:23:56.935Z,1.70
2022-10-16T14:26:27.668Z,2.72
2022-10-16T14:29:14.188Z,2.53
2022-10-16T14:31:42.836Z,3.50
2022-10-16T14:34:33.665Z,1.65
2022-10-16T14:37:20.724Z,1.65
2022-10-16T14:39:52.432Z,2.20
2022-10-16T14:42:25.023Z,3.35
2022-10-16T14:44:54.810Z,2.92
2022-10-16T14:47:28.042Z,2.15
2022-10-16T14:49:59.662Z,2.60
2022-10-16T14:52:29.089Z,2.13
2022-10-16T14:54:57.489Z,2.60
2022-10-16T14:57:29.373Z,2.28
2022-10-16T14:59:58.197Z,3.58
2022-10-16T15:02:30.423Z,1.63
2022-10-16T15:04:59.367Z,3.00
2022-10-16T15:07:29.239Z,2.15
2022-10-16T15:09:58.056Z,3.25
2022-10-16T15:12:26.113Z,1.88
2022-10-16T15:14:54.325Z,3.88
2022-10-16T15:17:22.375Z,1.90
2022-10-16T15:19:50.433Z,2.65
2022-10-16T15:22:18.507Z,2.42
2022-10-16T15:24:47.936Z,1.77
2022-10-16T15:27:15.975Z,3.45
2022-10-16T15:29:44.023Z,2.80
2022-10-16T15:32:12.827Z,2.22
2022-10-16T15:34:40.867Z,2.15
2022-10-16T15:37:09.022Z,1.85
2022-10-16T15:39:41.262Z,1.88
2022-10-16T15:42:10.847Z,2.20
2022-10-16T15:44:38.883Z,2.42
2022-10-16T15:47:06.935Z,3.80
2022-10-16T15:49:34.978Z,2.97
2022-10-16T15:52:03.027Z,3.95
2022-10-16T15:54:31.053Z,3.95
2022-10-16T15:56:59.140Z,4.75
2022-10-16T15:59:28.720Z,1.83
2022-10-16T16:01:56.802Z,1.73
2022-10-16T16:04:42.686Z,2.13
2022-10-16T16:07:11.735Z,8.80
2022-10-16T16:09:39.879Z,2.55
2022-10-16T16:12:07.933Z,2.58
2022-10-16T16:14:37.562Z,2.50
2022-10-16T16:17:05.589Z,3.00
2022-10-16T16:19:34.059Z,2.47
2022-10-16T16:22:02.127Z,2.38
2022-10-16T16:24:30.190Z,3.50
2022-10-16T16:26:58.603Z,2.38
2022-10-16T16:29:26.686Z,3.15
2022-10-16T16:31:58.218Z,4.13
2022-10-16T16:34:26.600Z,2.88
2022-10-16T16:36:54.741Z,4.43
2022-10-16T16:39:23.448Z,2.40
2022-10-16T16:41:51.947Z,4.20
2022-10-16T16:44:20.172Z,4.03
2022-10-16T16:46:48.238Z,3.00
2022-10-16T16:49:17.789Z,6.35
2022-10-16T16:51:45.850Z,6.20
2022-10-16T16:54:14.869Z,4.15
2022-10-16T16:56:45.272Z,3.88
2022-10-16T16:59:16.352Z,2.45
2022-10-16T17:01:44.485Z,4.78
2022-10-16T17:04:13.064Z,2.58
2022-10-16T17:06:42.950Z,4.43
2022-10-16T17:09:13.955Z,3.85
2022-10-16T17:11:43.920Z,2.67
2022-10-16T17:14:12.406Z,4.22
2022-10-16T17:16:44.646Z,3.15
2022-10-16T17:19:14.868Z,3.13
2022-10-16T17:21:44.703Z,3.00
2022-10-16T17:24:12.800Z,2.55
2022-10-16T17:26:43.540Z,4.30
2022-10-16T17:29:13.536Z,2.83
2022-10-16T17:31:42.439Z,4.43
2022-10-16T17:34:12.169Z,4.13
2022-10-16T17:36:43.821Z,2.88
2022-10-16T17:39:15.093Z,2.75
2022-10-16T17:41:43.168Z,7.10
2022-10-16T17:44:13.460Z,6.68
2022-10-16T17:46:41.462Z,3.30
2022-10-16T17:49:10.840Z,6.72
2022-10-16T17:51:38.952Z,2.75
2022-10-16T17:54:07.622Z,3.78
2022-10-16T17:56:37.179Z,63.53
2022-10-16T17:59:05.701Z,65.70
2022-10-16T18:01:35.783Z,31.13
2022-10-16T18:04:07.217Z,17.58
2022-10-16T18:06:35.777Z,10.88
2022-10-16T18:09:05.035Z,8.85
2022-10-16T18:11:33.376Z,4.82
2022-10-16T18:14:03.549Z,4.32
2022-10-16T18:16:32.775Z,4.38
2022-10-16T18:19:01.170Z,2.95
2022-10-16T18:21:30.063Z,6.53
2022-10-16T18:23:59.937Z,4.00
2022-10-16T18:26:28.186Z,4.30
2022-10-16T18:28:57.908Z,3.63
2022-10-16T18:31:28.021Z,4.28
2022-10-16T18:33:56.677Z,6.30
2022-10-16T18:36:26.593Z,6.20
2022-10-16T18:38:55.416Z,5.88
2022-10-16T18:41:23.989Z,4.40
2022-10-16T18:43:52.209Z,5.32
2022-10-16T18:46:22.092Z,3.78
2022-10-16T18:48:52.328Z,3.47
2022-10-16T18:51:22.853Z,4.85
2022-10-16T18:53:52.595Z,3.33
2022-10-16T18:56:23.239Z,5.72
2022-10-16T18:58:53.567Z,3.78
2022-10-16T19:01:24.568Z,6.05
2022-10-16T19:03:57.758Z,3.78
2022-10-16T19:06:26.868Z,5.80
2022-10-16T19:08:55.225Z,7.07
2022-10-16T19:11:25.834Z,3.50
2022-10-16T19:13:55.722Z,4.80
2022-10-16T19:16:25.950Z,4.55
2022-10-16T19:18:57.486Z,3.38
2022-10-16T19:21:27.307Z,3.58
2022-10-16T19:23:55.943Z,3.47
2022-10-16T19:26:25.209Z,3.78
2022-10-16T19:28:53.944Z,4.03
2022-10-16T19:31:24.632Z,5.03
2022-10-16T19:33:53.711Z,4.47
2022-10-16T19:36:24.942Z,5.03
2022-10-16T19:38:55.506Z,4.95
2022-10-16T19:41:24.756Z,6.68
2022-10-16T19:43:54.016Z,9.00
2022-10-16T19:46:24.459Z,5.22
2022-10-16T19:48:56.489Z,5.13
2022-10-16T19:51:26.707Z,5.05
2022-10-16T19:53:56.783Z,5.03
2022-10-16T19:56:27.628Z,3.92
2022-10-16T19:58:57.527Z,6.40
2022-10-16T20:01:27.679Z,6.68
2022-10-16T20:03:55.970Z,5.47
2022-10-16T20:06:25.888Z,4.72
2022-10-16T20:08:57.545Z,3.00
2022-10-16T20:11:27.547Z,4.65
2022-10-16T20:13:55.634Z,4.38
2022-10-16T20:16:24.327Z,6.45
2022-10-16T20:18:52.943Z,9.00
2022-10-16T20:21:23.795Z,4.60
2022-10-16T20:23:53.285Z,3.42
2022-10-16T20:26:24.055Z,4.03
2022-10-16T20:28:52.301Z,3.80
2022-10-16T20:31:23.383Z,7.38
2022-10-16T20:33:52.438Z,3.77
2022-10-16T20:36:22.017Z,4.00
2022-10-16T20:38:50.114Z,4.82
2022-10-16T20:41:20.357Z,3.78
2022-10-16T20:43:49.480Z,5.15
2022-10-16T20:46:19.767Z,3.60
2022-10-16T20:48:48.269Z,7.35
2022-10-16T20:51:18.681Z,4.50
2022-10-16T20:53:48.113Z,4.53
2022-10-16T20:56:17.568Z,8.00
2022-10-16T20:58:47.442Z,4.00
2022-10-16T21:01:17.481Z,3.42
2022-10-16T21:03:46.274Z,5.68
2022-10-16T21:06:14.323Z,4.88
2022-10-16T21:08:44.141Z,3.85
2022-10-16T21:11:13.640Z,4.70
2022-10-16T21:13:42.054Z,4.18
2022-10-16T21:16:12.152Z,3.03
2022-10-16T21:18:44.162Z,3.65
2022-10-16T21:21:19.970Z,5.97
2022-10-16T21:23:48.119Z,5.80
2022-10-16T21:26:16.634Z,3.70
2022-10-16T21:28:45.084Z,4.55
2022-10-16T21:31:16.340Z,5.93
2022-10-16T21:33:44.366Z,3.08
2022-10-16T21:36:17.031Z,5.93
2022-10-16T21:41:19.352Z,4.68
2022-10-16T21:43:48.021Z,3.35
2022-10-16T21:46:18.559Z,4.72
2022-10-16T21:48:47.204Z,3.88
2022-10-16T21:51:16.001Z,4.88
2022-10-16T21:53:44.046Z,3.75
2022-10-16T21:56:16.056Z,3.42
2022-10-16T21:58:45.555Z,5.00
2022-10-16T22:01:15.365Z,2.65
2022-10-16T22:03:45.102Z,5.88
2022-10-16T22:06:14.391Z,4.60
2022-10-16T22:08:43.299Z,3.70
2022-10-16T22:11:13.824Z,5.50
2022-10-16T22:13:42.354Z,7.43
2022-10-16T22:16:11.235Z,3.70
2022-10-16T22:18:40.262Z,3.70
2022-10-16T22:21:10.630Z,5.63
2022-10-16T22:23:38.942Z,4.03
2022-10-16T22:26:09.483Z,4.05
2022-10-16T22:28:38.076Z,4.47
2022-10-16T22:31:08.393Z,2.90
2022-10-16T22:33:36.631Z,6.40
2022-10-16T22:36:06.190Z,4.32
2022-10-16T22:38:37.566Z,7.07
2022-10-16T22:41:07.663Z,6.43
2022-10-16T22:43:36.964Z,3.28
2022-10-16T22:46:05.662Z,3.75
2022-10-16T22:48:33.716Z,4.90
2022-10-16T22:51:01.953Z,3.92
2022-10-16T22:53:30.290Z,3.05
2022-10-16T22:55:59.712Z,4.10
2022-10-16T22:58:28.350Z,5.65
2022-10-16T23:03:29.532Z,4.25
2022-10-16T23:05:57.576Z,26.20
2022-10-16T23:08:25.619Z,2.90
2022-10-16T23:10:53.660Z,2.60
2022-10-16T23:13:23.031Z,2.55
2022-10-16T23:15:51.100Z,4.53
2022-10-16T23:18:19.226Z,3.35
2022-10-16T23:20:47.253Z,2.63
2022-10-16T23:23:15.312Z,8.90
2022-10-16T23:25:47.355Z,3.53
2022-10-16T23:30:50.149Z,5.47
2022-10-16T23:33:18.244Z,3.75
2022-10-16T23:35:46.267Z,2.15
2022-10-16T23:38:14.828Z,5.65
2022-10-16T23:40:42.867Z,3.22
2022-10-16T23:43:10.876Z,2.50
2022-10-16T23:45:38.918Z,5.95
2022-10-16T23:48:08.383Z,5.30
2022-10-16T23:50:36.440Z,2.65
2022-10-16T23:53:06.639Z,2.65
2022-10-16T23:55:38.128Z,3.28
2022-10-16T23:58:06.264Z,2.35
